sensor_id;sensor_type;location;lat;lon;timestamp;pressure;altitude;pressure_sealevel;temperature;humidity
41334;BME280;27078;46.428;6.256;2023-04-06T00:00:02;96742.72;;;1.97;76.04
41334;BME280;27078;46.428;6.256;2023-04-06T00:02:29;96737.50;;;1.97;76.39
41334;BME280;27078;46.428;6.256;2023-04-06T00:04:55;96739.47;;;1.92;76.08
41334;BME280;27078;46.428;6.256;2023-04-06T00:07:20;96740.63;;;1.86;76.76
41334;BME280;27078;46.428;6.256;2023-04-06T00:09:46;96742.97;;;1.73;77.49
41334;BME280;27078;46.428;6.256;2023-04-06T00:12:11;96733.63;;;1.69;78.17
41334;BME280;27078;46.428;6.256;2023-04-06T00:14:36;96736.16;;;1.71;80.48
41334;BME280;27078;46.428;6.256;2023-04-06T00:17:02;96733.63;;;1.69;78.96
41334;BME280;27078;46.428;6.256;2023-04-06T00:19:27;96730.97;;;1.71;78.43
41334;BME280;27078;46.428;6.256;2023-04-06T00:21:53;96732.97;;;1.66;79.70
41334;BME280;27078;46.428;6.256;2023-04-06T00:24:18;96725.69;;;1.72;80.85
41334;BME280;27078;46.428;6.256;2023-04-06T00:26:43;96723.97;;;1.71;79.49
41334;BME280;27078;46.428;6.256;2023-04-06T00:29:09;96717.41;;;1.64;80.01
41334;BME280;27078;46.428;6.256;2023-04-06T00:31:34;96719.16;;;1.63;80.55
41334;BME280;27078;46.428;6.256;2023-04-06T00:33:59;96718.81;;;1.52;82.21
41334;BME280;27078;46.428;6.256;2023-04-06T00:36:25;96715.91;;;1.41;82.97
41334;BME280;27078;46.428;6.256;2023-04-06T00:38:50;96713.88;;;1.29;84.62
41334;BME280;27078;46.428;6.256;2023-04-06T00:41:17;96713.03;;;1.28;85.29
41334;BME280;27078;46.428;6.256;2023-04-06T00:43:42;96710.59;;;1.25;85.83
41334;BME280;27078;46.428;6.256;2023-04-06T00:46:08;96713.34;;;1.22;85.94
41334;BME280;27078;46.428;6.256;2023-04-06T00:48:33;96716.00;;;1.20;85.70
41334;BME280;27078;46.428;6.256;2023-04-06T00:50:59;96713.19;;;1.25;82.08
41334;BME280;27078;46.428;6.256;2023-04-06T00:53:24;96714.75;;;1.29;82.05
41334;BME280;27078;46.428;6.256;2023-04-06T00:55:49;96714.13;;;1.41;79.45
41334;BME280;27078;46.428;6.256;2023-04-06T00:58:15;96702.59;;;1.47;78.45
41334;BME280;27078;46.428;6.256;2023-04-06T01:00:40;96712.94;;;1.49;77.12
41334;BME280;27078;46.428;6.256;2023-04-06T01:03:06;96711.63;;;1.40;77.32
41334;BME280;27078;46.428;6.256;2023-04-06T01:05:35;96705.44;;;1.42;77.04
41334;BME280;27078;46.428;6.256;2023-04-06T01:08:05;96710.75;;;1.39;76.92
41334;BME280;27078;46.428;6.256;2023-04-06T01:10:31;96705.44;;;1.42;77.70
41334;BME280;27078;46.428;6.256;2023-04-06T01:12:56;96702.34;;;1.34;78.40
41334;BME280;27078;46.428;6.256;2023-04-06T01:15:22;96699.97;;;1.30;78.98
41334;BME280;27078;46.428;6.256;2023-04-06T01:17:48;96702.38;;;1.15;80.79
41334;BME280;27078;46.428;6.256;2023-04-06T01:20:14;96705.31;;;1.08;80.68
41334;BME280;27078;46.428;6.256;2023-04-06T01:22:40;96702.94;;;1.03;81.00
41334;BME280;27078;46.428;6.256;2023-04-06T01:25:06;96693.38;;;1.04;79.41
41334;BME280;27078;46.428;6.256;2023-04-06T01:27:31;96699.22;;;1.09;77.87
41334;BME280;27078;46.428;6.256;2023-04-06T01:29:57;96696.25;;;1.16;78.16
41334;BME280;27078;46.428;6.256;2023-04-06T01:32:22;96701.03;;;1.26;76.42
41334;BME280;27078;46.428;6.256;2023-04-06T01:34:48;96698.78;;;1.18;76.23
41334;BME280;27078;46.428;6.256;2023-04-06T01:37:13;96705.25;;;1.28;75.38
41334;BME280;27078;46.428;6.256;2023-04-06T01:39:38;96705.53;;;1.22;75.47
41334;BME280;27078;46.428;6.256;2023-04-06T01:42:04;96698.44;;;1.26;74.68
41334;BME280;27078;46.428;6.256;2023-04-06T01:44:29;96693.84;;;1.31;74.58
41334;BME280;27078;46.428;6.256;2023-04-06T01:46:56;96684.91;;;1.36;74.44
41334;BME280;27078;46.428;6.256;2023-04-06T01:49:21;96691.78;;;1.37;73.37
41334;BME280;27078;46.428;6.256;2023-04-06T01:51:47;96694.38;;;1.37;73.09
41334;BME280;27078;46.428;6.256;2023-04-06T01:54:12;96689.56;;;1.30;74.57
41334;BME280;27078;46.428;6.256;2023-04-06T01:56:38;96687.31;;;1.22;75.48
41334;BME280;27078;46.428;6.256;2023-04-06T01:59:03;96683.56;;;1.10;75.80
41334;BME280;27078;46.428;6.256;2023-04-06T02:01:28;96689.03;;;1.04;76.12
41334;BME280;27078;46.428;6.256;2023-04-06T02:03:54;96686.06;;;0.93;77.23
41334;BME280;27078;46.428;6.256;2023-04-06T02:06:19;96683.13;;;1.00;76.56
41334;BME280;27078;46.428;6.256;2023-04-06T02:08:45;96680.47;;;1.02;76.76
41334;BME280;27078;46.428;6.256;2023-04-06T02:11:11;96677.69;;;1.05;76.80
41334;BME280;27078;46.428;6.256;2023-04-06T02:13:36;96686.63;;;0.99;76.38
41334;BME280;27078;46.428;6.256;2023-04-06T02:16:01;96685.25;;;0.92;76.67
41334;BME280;27078;46.428;6.256;2023-04-06T02:18:29;96690.50;;;0.91;77.40
41334;BME280;27078;46.428;6.256;2023-04-06T02:20:54;96689.66;;;0.90;77.42
41334;BME280;27078;46.428;6.256;2023-04-06T02:23:20;96693.19;;;0.89;77.38
41334;BME280;27078;46.428;6.256;2023-04-06T02:25:46;96688.31;;;1.00;76.47
41334;BME280;27078;46.428;6.256;2023-04-06T02:28:11;96690.09;;;1.00;75.88
41334;BME280;27078;46.428;6.256;2023-04-06T02:30:37;96686.34;;;1.06;76.35
41334;BME280;27078;46.428;6.256;2023-04-06T02:33:02;96687.84;;;0.92;78.02
41334;BME280;27078;46.428;6.256;2023-04-06T02:35:29;96684.47;;;0.90;77.71
41334;BME280;27078;46.428;6.256;2023-04-06T02:37:55;96691.56;;;0.87;78.07
41334;BME280;27078;46.428;6.256;2023-04-06T02:40:20;96680.69;;;0.97;77.65
41334;BME280;27078;46.428;6.256;2023-04-06T02:42:46;96685.69;;;0.83;79.45
41334;BME280;27078;46.428;6.256;2023-04-06T02:45:11;96673.44;;;0.85;78.70
41334;BME280;27078;46.428;6.256;2023-04-06T02:47:37;96681.16;;;0.87;78.14
41334;BME280;27078;46.428;6.256;2023-04-06T02:50:02;96680.03;;;0.92;79.06
41334;BME280;27078;46.428;6.256;2023-04-06T02:52:28;96678.44;;;0.90;77.55
41334;BME280;27078;46.428;6.256;2023-04-06T02:54:53;96671.75;;;0.84;78.29
41334;BME280;27078;46.428;6.256;2023-04-06T02:57:19;96673.84;;;0.76;78.56
41334;BME280;27078;46.428;6.256;2023-04-06T02:59:44;96672.72;;;0.63;79.07
41334;BME280;27078;46.428;6.256;2023-04-06T03:02:10;96670.75;;;0.68;79.03
41334;BME280;27078;46.428;6.256;2023-04-06T03:04:35;96667.41;;;0.66;79.05
41334;BME280;27078;46.428;6.256;2023-04-06T03:07:01;96663.72;;;0.70;79.13
41334;BME280;27078;46.428;6.256;2023-04-06T03:09:26;96671.97;;;0.60;78.84
41334;BME280;27078;46.428;6.256;2023-04-06T03:11:52;96672.72;;;0.63;80.30
41334;BME280;27078;46.428;6.256;2023-04-06T03:14:17;96676.88;;;0.67;80.29
41334;BME280;27078;46.428;6.256;2023-04-06T03:16:47;96671.25;;;0.57;80.88
41334;BME280;27078;46.428;6.256;2023-04-06T03:19:12;96676.38;;;0.58;80.12
41334;BME280;27078;46.428;6.256;2023-04-06T03:21:37;96675.81;;;0.52;80.47
41334;BME280;27078;46.428;6.256;2023-04-06T03:24:04;96678.75;;;0.44;83.89
41334;BME280;27078;46.428;6.256;2023-04-06T03:26:29;96666.50;;;0.27;83.73
41334;BME280;27078;46.428;6.256;2023-04-06T03:28:54;96685.44;;;0.10;85.21
41334;BME280;27078;46.428;6.256;2023-04-06T03:31:20;96675.72;;;0.15;85.89
41334;BME280;27078;46.428;6.256;2023-04-06T03:33:45;96675.34;;;0.23;84.47
41334;BME280;27078;46.428;6.256;2023-04-06T03:36:10;96682.09;;;0.27;83.79
41334;BME280;27078;46.428;6.256;2023-04-06T03:38:36;96689.84;;;0.29;83.37
41334;BME280;27078;46.428;6.256;2023-04-06T03:41:01;96692.31;;;0.32;84.43
41334;BME280;27078;46.428;6.256;2023-04-06T03:43:26;96688.22;;;0.26;85.26
41334;BME280;27078;46.428;6.256;2023-04-06T03:45:52;96692.78;;;0.40;84.03
41334;BME280;27078;46.428;6.256;2023-04-06T03:48:17;96688.78;;;0.33;83.45
41334;BME280;27078;46.428;6.256;2023-04-06T03:50:42;96684.38;;;0.35;84.28
41334;BME280;27078;46.428;6.256;2023-04-06T03:53:08;96692.41;;;0.49;81.42
41334;BME280;27078;46.428;6.256;2023-04-06T03:55:33;96690.44;;;0.54;81.88
41334;BME280;27078;46.428;6.256;2023-04-06T03:57:59;96691.97;;;0.58;80.96
41334;BME280;27078;46.428;6.256;2023-04-06T04:00:25;96693.03;;;0.54;82.17
41334;BME280;27078;46.428;6.256;2023-04-06T04:02:50;96693.31;;;0.48;81.58
41334;BME280;27078;46.428;6.256;2023-04-06T04:05:16;96695.00;;;0.49;83.36
41334;BME280;27078;46.428;6.256;2023-04-06T04:07:41;96691.47;;;0.50;82.49
41334;BME280;27078;46.428;6.256;2023-04-06T04:10:07;96693.66;;;0.40;82.04
41334;BME280;27078;46.428;6.256;2023-04-06T04:12:32;96696.19;;;0.42;82.04
41334;BME280;27078;46.428;6.256;2023-04-06T04:14:58;96706.31;;;0.48;82.19
41334;BME280;27078;46.428;6.256;2023-04-06T04:17:24;96701.53;;;0.39;82.01
41334;BME280;27078;46.428;6.256;2023-04-06T04:19:50;96698.34;;;0.32;81.95
41334;BME280;27078;46.428;6.256;2023-04-06T04:22:15;96700.03;;;0.33;82.77
41334;BME280;27078;46.428;6.256;2023-04-06T04:24:40;96704.28;;;0.15;84.70
41334;BME280;27078;46.428;6.256;2023-04-06T04:27:06;96716.44;;;0.34;86.49
41334;BME280;27078;46.428;6.256;2023-04-06T04:29:31;96715.19;;;0.24;85.45
41334;BME280;27078;46.428;6.256;2023-04-06T04:31:57;96714.41;;;0.22;86.07
41334;BME280;27078;46.428;6.256;2023-04-06T04:34:22;96725.91;;;0.16;86.83
41334;BME280;27078;46.428;6.256;2023-04-06T04:36:51;96721.94;;;0.07;88.75
41334;BME280;27078;46.428;6.256;2023-04-06T04:39:17;96712.97;;;0.14;86.80
41334;BME280;27078;46.428;6.256;2023-04-06T04:41:42;96713.13;;;0.11;86.95
41334;BME280;27078;46.428;6.256;2023-04-06T04:44:08;96710.25;;;-0.03;89.50
41334;BME280;27078;46.428;6.256;2023-04-06T04:46:33;96709.78;;;-0.13;89.99
41334;BME280;27078;46.428;6.256;2023-04-06T04:48:58;96714.94;;;-0.11;90.79
41334;BME280;27078;46.428;6.256;2023-04-06T04:51:24;96720.66;;;-0.03;91.69
41334;BME280;27078;46.428;6.256;2023-04-06T04:53:50;96716.38;;;-0.04;91.13
41334;BME280;27078;46.428;6.256;2023-04-06T04:56:15;96722.34;;;-0.02;89.94
41334;BME280;27078;46.428;6.256;2023-04-06T04:58:41;96720.13;;;0.09;90.59
41334;BME280;27078;46.428;6.256;2023-04-06T05:01:06;96719.56;;;0.03;91.00
41334;BME280;27078;46.428;6.256;2023-04-06T05:03:32;96723.38;;;-0.06;91.80
41334;BME280;27078;46.428;6.256;2023-04-06T05:05:57;96711.69;;;-0.16;93.39
41334;BME280;27078;46.428;6.256;2023-04-06T05:08:23;96721.81;;;-0.10;94.73
41334;BME280;27078;46.428;6.256;2023-04-06T05:10:48;96728.97;;;0.05;93.08
41334;BME280;27078;46.428;6.256;2023-04-06T05:13:14;96734.16;;;0.05;92.44
41334;BME280;27078;46.428;6.256;2023-04-06T05:15:39;96735.84;;;0.06;92.27
41334;BME280;27078;46.428;6.256;2023-04-06T05:18:06;96741.75;;;0.10;89.79
41334;BME280;27078;46.428;6.256;2023-04-06T05:20:31;96727.94;;;0.09;91.15
41334;BME280;27078;46.428;6.256;2023-04-06T05:22:57;96743.63;;;0.06;92.31
41334;BME280;27078;46.428;6.256;2023-04-06T05:25:22;96742.47;;;0.13;89.00
41334;BME280;27078;46.428;6.256;2023-04-06T05:27:48;96733.44;;;0.22;88.34
41334;BME280;27078;46.428;6.256;2023-04-06T05:30:14;96733.13;;;0.30;89.22
41334;BME280;27078;46.428;6.256;2023-04-06T05:32:39;96734.97;;;0.47;86.73
41334;BME280;27078;46.428;6.256;2023-04-06T05:35:05;96735.91;;;0.65;85.47
41334;BME280;27078;46.428;6.256;2023-04-06T05:37:31;96735.88;;;0.85;83.75
41334;BME280;27078;46.428;6.256;2023-04-06T05:39:56;96730.50;;;1.07;80.45
41334;BME280;27078;46.428;6.256;2023-04-06T05:42:22;96734.44;;;1.16;79.50
41334;BME280;27078;46.428;6.256;2023-04-06T05:44:48;96736.41;;;1.30;78.56
41334;BME280;27078;46.428;6.256;2023-04-06T05:47:13;96734.97;;;1.41;76.41
41334;BME280;27078;46.428;6.256;2023-04-06T05:49:38;96737.75;;;1.56;77.20
41334;BME280;27078;46.428;6.256;2023-04-06T05:52:04;96744.75;;;1.73;77.07
41334;BME280;27078;46.428;6.256;2023-04-06T05:54:29;96748.38;;;1.88;74.99
41334;BME280;27078;46.428;6.256;2023-04-06T05:56:55;96738.81;;;2.06;74.32
41334;BME280;27078;46.428;6.256;2023-04-06T05:59:20;96738.72;;;2.24;73.89
41334;BME280;27078;46.428;6.256;2023-04-06T06:01:46;96742.66;;;2.49;74.82
41334;BME280;27078;46.428;6.256;2023-04-06T06:04:11;96735.22;;;2.75;73.24
41334;BME280;27078;46.428;6.256;2023-04-06T06:06:36;96737.22;;;3.03;72.55
41334;BME280;27078;46.428;6.256;2023-04-06T06:09:02;96738.66;;;3.24;71.56
41334;BME280;27078;46.428;6.256;2023-04-06T06:11:28;96744.91;;;3.54;71.51
41334;BME280;27078;46.428;6.256;2023-04-06T06:13:54;96741.16;;;3.74;69.77
41334;BME280;27078;46.428;6.256;2023-04-06T06:16:20;96743.75;;;3.90;70.10
41334;BME280;27078;46.428;6.256;2023-04-06T06:18:46;96735.91;;;4.04;70.76
41334;BME280;27078;46.428;6.256;2023-04-06T06:21:11;96746.25;;;4.21;72.22
41334;BME280;27078;46.428;6.256;2023-04-06T06:23:38;96743.09;;;4.31;70.22
41334;BME280;27078;46.428;6.256;2023-04-06T06:26:03;96740.78;;;4.40;69.60
41334;BME280;27078;46.428;6.256;2023-04-06T06:28:29;96747.69;;;4.41;69.05
41334;BME280;27078;46.428;6.256;2023-04-06T06:30:55;96743.50;;;4.53;70.56
41334;BME280;27078;46.428;6.256;2023-04-06T06:33:20;96756.84;;;4.48;73.50
41334;BME280;27078;46.428;6.256;2023-04-06T06:35:45;96752.63;;;4.46;75.95
41334;BME280;27078;46.428;6.256;2023-04-06T06:38:11;96754.88;;;4.52;73.94
41334;BME280;27078;46.428;6.256;2023-04-06T06:40:36;96752.66;;;4.60;70.50
41334;BME280;27078;46.428;6.256;2023-04-06T06:43:02;96751.06;;;4.86;72.79
41334;BME280;27078;46.428;6.256;2023-04-06T06:45:27;96759.97;;;4.98;71.34
41334;BME280;27078;46.428;6.256;2023-04-06T06:47:54;96758.63;;;5.20;69.01
41334;BME280;27078;46.428;6.256;2023-04-06T06:50:19;96759.91;;;5.41;69.06
41334;BME280;27078;46.428;6.256;2023-04-06T06:52:45;96755.84;;;5.50;67.36
41334;BME280;27078;46.428;6.256;2023-04-06T06:55:10;96757.84;;;5.46;67.70
41334;BME280;27078;46.428;6.256;2023-04-06T06:57:36;96756.41;;;5.55;67.47
41334;BME280;27078;46.428;6.256;2023-04-06T07:00:02;96758.13;;;5.69;66.45
41334;BME280;27078;46.428;6.256;2023-04-06T07:02:30;96752.50;;;5.75;65.10
41334;BME280;27078;46.428;6.256;2023-04-06T07:04:55;96758.19;;;5.82;66.15
41334;BME280;27078;46.428;6.256;2023-04-06T07:07:21;96755.78;;;5.79;66.01
41334;BME280;27078;46.428;6.256;2023-04-06T07:09:46;96751.72;;;5.87;65.11
41334;BME280;27078;46.428;6.256;2023-04-06T07:12:12;96757.03;;;6.00;64.84
41334;BME280;27078;46.428;6.256;2023-04-06T07:14:37;96739.69;;;6.25;64.00
41334;BME280;27078;46.428;6.256;2023-04-06T07:17:02;96745.47;;;6.43;65.00
41334;BME280;27078;46.428;6.256;2023-04-06T07:19:28;96752.84;;;6.63;67.74
41334;BME280;27078;46.428;6.256;2023-04-06T07:21:53;96750.13;;;6.78;63.69
41334;BME280;27078;46.428;6.256;2023-04-06T07:24:19;96754.00;;;6.85;63.74
41334;BME280;27078;46.428;6.256;2023-04-06T07:26:45;96760.19;;;6.97;63.69
41334;BME280;27078;46.428;6.256;2023-04-06T07:29:10;96758.59;;;7.07;66.58
41334;BME280;27078;46.428;6.256;2023-04-06T07:31:36;96760.38;;;7.06;64.54
41334;BME280;27078;46.428;6.256;2023-04-06T07:34:01;96770.56;;;7.11;63.25
41334;BME280;27078;46.428;6.256;2023-04-06T07:36:27;96764.78;;;7.19;62.73
41334;BME280;27078;46.428;6.256;2023-04-06T07:38:52;96765.63;;;7.19;61.91
41334;BME280;27078;46.428;6.256;2023-04-06T07:41:17;96766.00;;;7.26;62.44
41334;BME280;27078;46.428;6.256;2023-04-06T07:43:43;96762.88;;;7.21;60.90
41334;BME280;27078;46.428;6.256;2023-04-06T07:46:08;96759.06;;;7.38;63.99
41334;BME280;27078;46.428;6.256;2023-04-06T07:48:33;96758.34;;;7.36;62.40
41334;BME280;27078;46.428;6.256;2023-04-06T07:51:05;96765.47;;;7.46;62.05
41334;BME280;27078;46.428;6.256;2023-04-06T07:53:31;96765.56;;;7.45;58.25
41334;BME280;27078;46.428;6.256;2023-04-06T07:55:58;96768.38;;;7.54;62.57
41334;BME280;27078;46.428;6.256;2023-04-06T07:58:23;96770.56;;;7.61;60.19
41334;BME280;27078;46.428;6.256;2023-04-06T08:00:49;96771.34;;;7.50;59.65
41334;BME280;27078;46.428;6.256;2023-04-06T08:03:14;96780.34;;;7.59;62.26
41334;BME280;27078;46.428;6.256;2023-04-06T08:05:40;96780.56;;;7.55;60.70
41334;BME280;27078;46.428;6.256;2023-04-06T08:08:05;96773.63;;;7.54;62.03
41334;BME280;27078;46.428;6.256;2023-04-06T08:10:30;96766.56;;;7.18;59.09
41334;BME280;27078;46.428;6.256;2023-04-06T08:12:56;96776.25;;;6.92;58.56
41334;BME280;27078;46.428;6.256;2023-04-06T08:15:21;96769.00;;;6.83;60.28
41334;BME280;27078;46.428;6.256;2023-04-06T08:17:46;96768.91;;;6.97;62.57
41334;BME280;27078;46.428;6.256;2023-04-06T08:20:12;96769.22;;;7.05;64.73
41334;BME280;27078;46.428;6.256;2023-04-06T08:22:37;96765.50;;;7.21;64.35
41334;BME280;27078;46.428;6.256;2023-04-06T08:25:03;96769.91;;;7.33;63.15
41334;BME280;27078;46.428;6.256;2023-04-06T08:27:28;96768.38;;;7.54;64.36
41334;BME280;27078;46.428;6.256;2023-04-06T08:29:54;96760.13;;;7.72;60.69
41334;BME280;27078;46.428;6.256;2023-04-06T08:32:20;96763.72;;;7.71;56.65
41334;BME280;27078;46.428;6.256;2023-04-06T08:34:46;96758.84;;;7.78;59.07
41334;BME280;27078;46.428;6.256;2023-04-06T08:37:11;96764.44;;;7.97;59.13
41334;BME280;27078;46.428;6.256;2023-04-06T08:39:37;96761.25;;;8.05;58.54
41334;BME280;27078;46.428;6.256;2023-04-06T08:42:02;96758.13;;;8.35;60.35
41334;BME280;27078;46.428;6.256;2023-04-06T08:44:29;96759.28;;;8.55;58.11
41334;BME280;27078;46.428;6.256;2023-04-06T08:46:55;96756.69;;;8.89;58.64
41334;BME280;27078;46.428;6.256;2023-04-06T08:49:21;96755.06;;;9.10;59.61
41334;BME280;27078;46.428;6.256;2023-04-06T08:51:46;96753.38;;;9.32;57.15
41334;BME280;27078;46.428;6.256;2023-04-06T08:54:12;96759.34;;;9.11;55.06
41334;BME280;27078;46.428;6.256;2023-04-06T08:56:38;96757.09;;;9.29;59.89
41334;BME280;27078;46.428;6.256;2023-04-06T08:59:05;96761.75;;;9.48;57.92
41334;BME280;27078;46.428;6.256;2023-04-06T09:01:33;96757.25;;;9.71;54.46
41334;BME280;27078;46.428;6.256;2023-04-06T09:04:03;96758.19;;;9.82;56.82
41334;BME280;27078;46.428;6.256;2023-04-06T09:06:34;96757.13;;;9.73;58.78
41334;BME280;27078;46.428;6.256;2023-04-06T09:08:59;96753.56;;;9.74;54.62
41334;BME280;27078;46.428;6.256;2023-04-06T09:11:25;96750.06;;;9.73;52.71
41334;BME280;27078;46.428;6.256;2023-04-06T09:13:53;96750.59;;;9.88;52.57
41334;BME280;27078;46.428;6.256;2023-04-06T09:16:19;96752.75;;;9.94;55.32
41334;BME280;27078;46.428;6.256;2023-04-06T09:18:45;96742.47;;;9.91;55.00
41334;BME280;27078;46.428;6.256;2023-04-06T09:21:11;96747.66;;;10.14;54.05
41334;BME280;27078;46.428;6.256;2023-04-06T09:23:37;96750.88;;;10.17;52.21
41334;BME280;27078;46.428;6.256;2023-04-06T09:26:15;96740.50;;;10.37;50.27
41334;BME280;27078;46.428;6.256;2023-04-06T09:31:12;96737.94;;;10.47;50.73
41334;BME280;27078;46.428;6.256;2023-04-06T09:33:41;96740.38;;;10.59;49.77
41334;BME280;27078;46.428;6.256;2023-04-06T09:36:07;96747.28;;;10.72;52.15
41334;BME280;27078;46.428;6.256;2023-04-06T09:38:36;96737.28;;;10.75;51.32
41334;BME280;27078;46.428;6.256;2023-04-06T09:41:02;96739.78;;;10.77;52.23
41334;BME280;27078;46.428;6.256;2023-04-06T09:43:27;96736.44;;;10.54;47.85
41334;BME280;27078;46.428;6.256;2023-04-06T09:45:55;96729.69;;;10.61;49.81
41334;BME280;27078;46.428;6.256;2023-04-06T09:48:21;96737.22;;;10.87;50.49
41334;BME280;27078;46.428;6.256;2023-04-06T09:50:59;96731.66;;;10.90;50.97
41334;BME280;27078;46.428;6.256;2023-04-06T09:53:26;96739.81;;;11.08;51.71
41334;BME280;27078;46.428;6.256;2023-04-06T09:56:03;96738.13;;;11.07;50.23
41334;BME280;27078;46.428;6.256;2023-04-06T09:58:34;96735.25;;;11.19;50.13
41334;BME280;27078;46.428;6.256;2023-04-06T10:01:15;96738.78;;;11.30;50.37
41334;BME280;27078;46.428;6.256;2023-04-06T10:04:13;96743.19;;;11.19;49.56
41334;BME280;27078;46.428;6.256;2023-04-06T10:07:03;96736.34;;;11.57;48.83
41334;BME280;27078;46.428;6.256;2023-04-06T10:09:32;96728.66;;;11.45;44.07
41334;BME280;27078;46.428;6.256;2023-04-06T10:12:06;96729.13;;;11.50;45.52
41334;BME280;27078;46.428;6.256;2023-04-06T10:14:35;96725.53;;;11.70;45.57
41334;BME280;27078;46.428;6.256;2023-04-06T10:17:04;96735.59;;;11.86;45.65
41334;BME280;27078;46.428;6.256;2023-04-06T10:19:44;96730.03;;;11.89;45.28
41334;BME280;27078;46.428;6.256;2023-04-06T10:22:20;96738.56;;;12.12;47.20
41334;BME280;27078;46.428;6.256;2023-04-06T10:24:53;96727.84;;;12.33;42.26
41334;BME280;27078;46.428;6.256;2023-04-06T10:27:37;96729.47;;;12.73;41.41
41334;BME280;27078;46.428;6.256;2023-04-06T10:30:05;96734.75;;;12.83;39.29
41334;BME280;27078;46.428;6.256;2023-04-06T10:35:11;96733.78;;;13.21;39.76
41334;BME280;27078;46.428;6.256;2023-04-06T10:40:23;96740.22;;;13.19;40.46
41334;BME280;27078;46.428;6.256;2023-04-06T10:42:51;96733.53;;;13.15;39.21
41334;BME280;27078;46.428;6.256;2023-04-06T10:45:24;96728.34;;;13.23;39.10
41334;BME280;27078;46.428;6.256;2023-04-06T10:47:53;96722.38;;;13.11;36.40
41334;BME280;27078;46.428;6.256;2023-04-06T10:50:19;96721.72;;;13.37;40.35
41334;BME280;27078;46.428;6.256;2023-04-06T10:52:45;96726.75;;;13.40;39.53
41334;BME280;27078;46.428;6.256;2023-04-06T10:55:16;96722.19;;;13.32;37.80
41334;BME280;27078;46.428;6.256;2023-04-06T10:57:41;96723.78;;;13.53;37.88
41334;BME280;27078;46.428;6.256;2023-04-06T11:00:08;96722.78;;;13.54;39.61
41334;BME280;27078;46.428;6.256;2023-04-06T11:02:36;96715.31;;;13.85;38.44
41334;BME280;27078;46.428;6.256;2023-04-06T11:05:03;96713.72;;;13.92;39.52
41334;BME280;27078;46.428;6.256;2023-04-06T11:07:30;96712.63;;;13.67;35.89
41334;BME280;27078;46.428;6.256;2023-04-06T11:09:56;96707.78;;;13.62;34.18
41334;BME280;27078;46.428;6.256;2023-04-06T11:12:26;96701.72;;;13.70;41.22
41334;BME280;27078;46.428;6.256;2023-04-06T11:15:03;96695.75;;;14.04;42.80
41334;BME280;27078;46.428;6.256;2023-04-06T11:17:36;96696.34;;;14.34;43.59
41334;BME280;27078;46.428;6.256;2023-04-06T11:20:03;96685.78;;;14.42;38.96
41334;BME280;27078;46.428;6.256;2023-04-06T11:22:31;96683.28;;;14.58;39.78
41334;BME280;27078;46.428;6.256;2023-04-06T11:25:06;96674.72;;;14.73;38.31
41334;BME280;27078;46.428;6.256;2023-04-06T11:27:32;96676.81;;;14.87;39.21
41334;BME280;27078;46.428;6.256;2023-04-06T11:29:59;96675.50;;;15.25;38.28
41334;BME280;27078;46.428;6.256;2023-04-06T11:32:25;96670.59;;;15.39;36.05
41334;BME280;27078;46.428;6.256;2023-04-06T11:34:50;96669.50;;;15.23;36.37
41334;BME280;27078;46.428;6.256;2023-04-06T11:37:16;96677.78;;;15.12;41.19
41334;BME280;27078;46.428;6.256;2023-04-06T11:39:51;96675.38;;;14.93;41.53
41334;BME280;27078;46.428;6.256;2023-04-06T11:42:26;96671.19;;;14.64;42.54
41334;BME280;27078;46.428;6.256;2023-04-06T11:44:56;96666.94;;;15.05;45.58
41334;BME280;27078;46.428;6.256;2023-04-06T11:47:55;96668.91;;;15.38;41.00
41334;BME280;27078;46.428;6.256;2023-04-06T11:50:21;96670.69;;;15.72;41.53
41334;BME280;27078;46.428;6.256;2023-04-06T11:52:57;96672.09;;;15.92;38.72
41334;BME280;27078;46.428;6.256;2023-04-06T11:55:23;96664.75;;;16.11;38.36
41334;BME280;27078;46.428;6.256;2023-04-06T11:57:48;96670.09;;;16.02;32.65
41334;BME280;27078;46.428;6.256;2023-04-06T12:00:15;96660.41;;;15.85;34.58
41334;BME280;27078;46.428;6.256;2023-04-06T12:02:45;96662.09;;;15.86;41.97
41334;BME280;27078;46.428;6.256;2023-04-06T12:05:11;96662.09;;;15.94;40.84
41334;BME280;27078;46.428;6.256;2023-04-06T12:07:36;96664.09;;;16.08;40.46
41334;BME280;27078;46.428;6.256;2023-04-06T12:10:02;96658.75;;;16.08;36.73
41334;BME280;27078;46.428;6.256;2023-04-06T12:12:28;96661.44;;;16.33;34.85
41334;BME280;27078;46.428;6.256;2023-04-06T12:14:54;96652.28;;;16.11;36.47
41334;BME280;27078;46.428;6.256;2023-04-06T12:17:20;96655.06;;;15.77;34.52
41334;BME280;27078;46.428;6.256;2023-04-06T12:19:46;96660.97;;;15.46;36.02
41334;BME280;27078;46.428;6.256;2023-04-06T12:22:11;96662.28;;;15.42;37.51
41334;BME280;27078;46.428;6.256;2023-04-06T12:24:36;96658.88;;;15.23;36.35
41334;BME280;27078;46.428;6.256;2023-04-06T12:27:02;96658.59;;;15.43;36.03
41334;BME280;27078;46.428;6.256;2023-04-06T12:29:28;96656.41;;;15.73;34.50
41334;BME280;27078;46.428;6.256;2023-04-06T12:31:53;96657.94;;;16.08;37.05
41334;BME280;27078;46.428;6.256;2023-04-06T12:34:18;96654.78;;;16.13;34.98
41334;BME280;27078;46.428;6.256;2023-04-06T12:36:44;96652.13;;;16.29;39.06
41334;BME280;27078;46.428;6.256;2023-04-06T12:39:10;96661.28;;;16.43;37.59
41334;BME280;27078;46.428;6.256;2023-04-06T12:41:36;96654.78;;;16.29;41.31
41334;BME280;27078;46.428;6.256;2023-04-06T12:44:01;96648.28;;;16.07;37.21
41334;BME280;27078;46.428;6.256;2023-04-06T12:46:27;96646.94;;;15.86;39.68
41334;BME280;27078;46.428;6.256;2023-04-06T12:48:54;96653.09;;;15.87;40.14
41334;BME280;27078;46.428;6.256;2023-04-06T12:51:20;96649.03;;;15.66;39.08
41334;BME280;27078;46.428;6.256;2023-04-06T12:53:46;96647.09;;;15.85;39.17
41334;BME280;27078;46.428;6.256;2023-04-06T12:56:14;96642.31;;;16.05;39.49
41334;BME280;27078;46.428;6.256;2023-04-06T12:58:41;96631.81;;;16.12;39.93
41334;BME280;27078;46.428;6.256;2023-04-06T13:01:07;96636.47;;;16.10;39.33
41334;BME280;27078;46.428;6.256;2023-04-06T13:03:32;96633.63;;;16.36;39.31
41334;BME280;27078;46.428;6.256;2023-04-06T13:05:59;96637.81;;;16.22;39.85
41334;BME280;27078;46.428;6.256;2023-04-06T13:08:25;96640.78;;;16.43;39.17
41334;BME280;27078;46.428;6.256;2023-04-06T13:10:51;96634.78;;;16.49;34.81